Time;durP1;ratioP1;P1;durP2;ratioP2;P2;SDS_P1;SDS_P2;PMS_P1;PMS_P2;Temp;Humidity;BMP_temperature;BMP_pressure;BME280_temperature;BME280_humidity;BME280_pressure;Samples;Min_cycle;Max_cycle;Signal;HPM_P1;HPM_P2
2021/07/19 00:01:56;;;;;;;11.40;5.45;;;16.90;99.90;;;;;;5064346;28;20486;-67
2021/07/19 00:04:23;;;;;;;13.40;5.60;;;16.80;99.90;;;;;;5061980;28;20036;-67
2021/07/19 00:06:50;;;;;;;8.23;4.97;;;16.70;99.90;;;;;;5064930;28;20048;-67
2021/07/19 00:09:15;;;;;;;9.30;5.60;;;16.70;99.90;;;;;;5060494;28;20037;-66
2021/07/19 00:11:41;;;;;;;11.02;6.20;;;16.70;99.90;;;;;;5064778;28;20055;-66
2021/07/19 00:14:08;;;;;;;11.07;6.22;;;16.80;99.90;;;;;;5063747;28;20036;-66
2021/07/19 00:16:34;;;;;;;14.38;7.35;;;16.70;99.90;;;;;;5065207;28;20091;-66
2021/07/19 00:19:00;;;;;;;11.88;5.88;;;16.70;99.90;;;;;;5062065;28;20067;-67
2021/07/19 00:21:26;;;;;;;13.20;6.25;;;16.70;99.90;;;;;;5064393;28;20108;-67
2021/07/19 00:23:53;;;;;;;13.27;6.82;;;16.70;99.90;;;;;;5063535;28;20037;-67
2021/07/19 00:26:21;;;;;;;8.80;6.40;;;16.70;99.90;;;;;;5063481;28;20086;-67
2021/07/19 00:28:48;;;;;;;10.77;6.05;;;16.60;99.90;;;;;;5059901;28;20098;-67
2021/07/19 00:31:15;;;;;;;14.80;7.38;;;16.70;99.90;;;;;;5063519;28;20445;-66
2021/07/19 00:33:41;;;;;;;9.93;6.68;;;16.70;99.90;;;;;;5064090;28;20131;-67
2021/07/19 00:36:07;;;;;;;14.50;7.55;;;16.70;99.90;;;;;;5063100;28;20127;-67
2021/07/19 00:38:32;;;;;;;10.25;6.38;;;16.70;99.90;;;;;;5060850;28;20044;-67
2021/07/19 00:40:59;;;;;;;10.27;6.20;;;16.80;99.90;;;;;;5062536;28;20674;-67
2021/07/19 00:43:24;;;;;;;11.25;6.28;;;16.80;99.90;;;;;;5063073;28;20043;-67
2021/07/19 00:45:50;;;;;;;11.50;6.47;;;16.80;99.90;;;;;;5061941;28;20033;-67
2021/07/19 00:48:17;;;;;;;12.70;6.78;;;16.80;99.90;;;;;;5061749;28;20402;-66
2021/07/19 00:50:43;;;;;;;10.93;6.32;;;16.80;99.90;;;;;;5061900;28;20119;-66
2021/07/19 00:53:09;;;;;;;9.30;6.05;;;16.70;99.90;;;;;;5068011;28;20462;-66
2021/07/19 00:55:36;;;;;;;12.30;7.45;;;16.70;99.90;;;;;;5066284;28;20044;-66
2021/07/19 00:58:04;;;;;;;10.23;6.28;;;16.70;99.90;;;;;;5063886;28;20064;-66
2021/07/19 01:00:32;;;;;;;9.65;6.78;;;16.70;99.90;;;;;;5062291;28;20040;-66
2021/07/19 01:02:58;;;;;;;9.93;7.32;;;16.70;99.90;;;;;;5067334;28;20462;-66
2021/07/19 01:05:27;;;;;;;13.30;7.75;;;16.60;99.90;;;;;;5067700;28;20044;-66
2021/07/19 01:07:54;;;;;;;15.82;6.68;;;16.60;99.90;;;;;;5065470;28;20045;-66
2021/07/19 01:10:20;;;;;;;12.88;6.68;;;16.60;99.90;;;;;;5061334;28;20103;-66
2021/07/19 01:12:56;;;;;;;9.60;6.05;;;16.60;99.90;;;;;;5065927;28;20037;-66
2021/07/19 01:15:24;;;;;;;9.18;6.28;;;16.50;99.90;;;;;;5064375;28;20052;-66
2021/07/19 01:17:50;;;;;;;12.45;6.78;;;16.50;99.90;;;;;;5065041;28;20055;-66
2021/07/19 01:20:19;;;;;;;8.35;6.18;;;16.40;99.90;;;;;;5064535;28;20166;-66
2021/07/19 01:23:06;;;;;;;14.80;7.82;;;16.30;99.90;;;;;;5065421;28;20466;-66
2021/07/19 01:26:01;;;;;;;9.38;6.10;;;16.30;99.90;;;;;;5065522;28;20444;-67
2021/07/19 01:28:42;;;;;;;12.18;7.38;;;16.20;99.90;;;;;;5063997;28;20048;-66
2021/07/19 01:31:15;;;;;;;12.05;7.13;;;16.20;99.90;;;;;;5064826;28;20036;-66
2021/07/19 01:33:46;;;;;;;11.93;7.57;;;16.10;99.90;;;;;;5066468;28;20044;-67
2021/07/19 01:36:18;;;;;;;11.05;7.45;;;16.10;99.90;;;;;;5065595;28;20040;-66
2021/07/19 01:38:44;;;;;;;12.50;7.65;;;16.00;99.90;;;;;;5060929;28;20044;-66
2021/07/19 01:41:10;;;;;;;10.18;7.30;;;15.90;99.90;;;;;;5066591;28;20040;-66
2021/07/19 01:43:36;;;;;;;8.30;7.00;;;15.80;99.90;;;;;;5063927;28;20437;-66
2021/07/19 01:46:04;;;;;;;13.48;7.97;;;15.80;99.90;;;;;;5066270;28;20045;-66
2021/07/19 01:48:32;;;;;;;10.75;7.20;;;15.80;99.90;;;;;;5062121;28;20105;-67
2021/07/19 01:50:59;;;;;;;15.02;7.85;;;15.70;99.90;;;;;;5064481;28;20575;-66
2021/07/19 01:53:29;;;;;;;12.20;7.22;;;15.70;99.90;;;;;;5063651;28;20041;-66
2021/07/19 01:55:56;;;;;;;10.18;7.25;;;15.70;99.90;;;;;;5065987;28;20047;-66
2021/07/19 01:58:23;;;;;;;10.57;8.57;;;15.70;99.90;;;;;;5063074;28;20043;-66
2021/07/19 02:00:50;;;;;;;11.55;7.65;;;15.70;99.90;;;;;;5063858;28;20390;-66
2021/07/19 02:03:16;;;;;;;10.63;7.43;;;15.70;99.90;;;;;;5065083;28;20481;-66
2021/07/19 02:05:43;;;;;;;10.52;7.72;;;15.60;99.90;;;;;;5065148;28;20055;-66
2021/07/19 02:08:14;;;;;;;8.82;7.50;;;15.60;99.90;;;;;;5062125;28;20386;-66
2021/07/19 02:10:40;;;;;;;13.40;8.77;;;15.60;99.90;;;;;;5060059;28;20129;-66
2021/07/19 02:13:06;;;;;;;10.82;7.28;;;15.60;99.90;;;;;;5065274;28;20056;-66
2021/07/19 02:15:33;;;;;;;13.77;9.25;;;15.60;99.90;;;;;;5065653;28;20045;-66
2021/07/19 02:18:02;;;;;;;13.02;8.68;;;15.60;99.90;;;;;;5063353;28;20086;-66
2021/07/19 02:20:28;;;;;;;16.40;10.38;;;15.60;99.90;;;;;;5058297;28;20496;-66
2021/07/19 02:22:56;;;;;;;14.35;9.40;;;15.60;99.90;;;;;;5065334;28;20883;-66
2021/07/19 02:25:22;;;;;;;15.10;10.05;;;15.70;99.90;;;;;;5065587;28;20269;-66
2021/07/19 02:27:51;;;;;;;12.88;8.82;;;15.70;99.90;;;;;;5064258;28;20033;-66
2021/07/19 02:30:20;;;;;;;14.05;8.35;;;15.70;99.90;;;;;;5062318;28;20197;-66
2021/07/19 02:32:49;;;;;;;16.58;9.35;;;15.70;99.90;;;;;;5065180;28;20040;-66
2021/07/19 02:35:16;;;;;;;15.90;8.95;;;15.70;99.90;;;;;;5066028;28;20052;-66
2021/07/19 02:37:44;;;;;;;19.63;9.82;;;15.80;99.90;;;;;;5062085;28;20063;-66
2021/07/19 02:40:12;;;;;;;13.10;9.35;;;15.80;99.90;;;;;;5061210;28;20058;-66
2021/07/19 02:42:45;;;;;;;15.75;9.15;;;15.80;99.90;;;;;;5064109;28;20040;-66
2021/07/19 02:45:14;;;;;;;13.27;9.10;;;15.80;99.90;;;;;;5065742;28;20037;-66
2021/07/19 02:47:44;;;;;;;16.05;8.90;;;15.90;99.90;;;;;;5066107;28;20154;-66
2021/07/19 02:50:12;;;;;;;17.65;9.40;;;15.90;99.90;;;;;;5059645;28;20029;-66
2021/07/19 02:52:39;;;;;;;12.57;9.13;;;15.90;99.90;;;;;;5064257;28;20044;-66
2021/07/19 02:55:07;;;;;;;12.93;8.50;;;15.90;99.90;;;;;;5063337;28;20070;-66
2021/07/19 02:57:37;;;;;;;19.77;9.82;;;15.90;99.90;;;;;;5064910;28;20035;-66
2021/07/19 03:00:13;;;;;;;19.23;9.63;;;15.90;99.90;;;;;;5060197;28;20032;-66
2021/07/19 03:02:42;;;;;;;9.75;8.75;;;15.90;99.90;;;;;;5064631;28;20049;-66
2021/07/19 03:05:10;;;;;;;14.73;8.65;;;15.90;99.90;;;;;;5062812;28;20041;-66
2021/07/19 03:07:38;;;;;;;12.50;9.02;;;15.90;99.90;;;;;;5065072;28;20430;-66
2021/07/19 03:10:08;;;;;;;15.73;9.02;;;15.80;99.90;;;;;;5062012;28;20024;-66
2021/07/19 03:12:39;;;;;;;15.20;9.77;;;15.90;99.90;;;;;;5063364;28;20041;-67
2021/07/19 03:15:07;;;;;;;16.98;9.48;;;15.90;99.90;;;;;;5065963;28;20047;-67
2021/07/19 03:17:36;;;;;;;11.90;8.43;;;16.00;99.90;;;;;;5064673;28;20041;-66
2021/07/19 03:20:04;;;;;;;12.68;8.27;;;15.90;99.90;;;;;;5062006;28;20447;-66
2021/07/19 03:22:31;;;;;;;15.05;9.45;;;16.00;99.90;;;;;;5064669;28;20098;-67
2021/07/19 03:24:58;;;;;;;15.55;9.48;;;16.00;99.90;;;;;;5060027;28;20127;-66
2021/07/19 03:27:24;;;;;;;14.82;8.30;;;16.00;99.90;;;;;;5065703;28;20049;-66
2021/07/19 03:29:52;;;;;;;13.38;8.50;;;16.10;99.90;;;;;;5060526;28;20037;-66
2021/07/19 03:32:19;;;;;;;16.52;9.77;;;16.00;99.90;;;;;;5066309;28;20041;-66
2021/07/19 03:34:45;;;;;;;17.30;8.90;;;16.00;99.90;;;;;;5070326;28;20062;-66
2021/07/19 03:37:15;;;;;;;12.63;8.85;;;16.10;99.90;;;;;;5066843;28;20094;-66
2021/07/19 03:39:42;;;;;;;18.90;9.27;;;16.00;99.90;;;;;;5064354;28;20072;-66
2021/07/19 03:42:10;;;;;;;15.32;8.90;;;16.10;99.90;;;;;;5068002;28;20111;-66
2021/07/19 03:44:36;;;;;;;19.38;9.10;;;16.10;99.90;;;;;;5066384;28;20490;-66
2021/07/19 03:47:02;;;;;;;19.15;9.20;;;16.10;99.90;;;;;;5067476;28;20040;-66
2021/07/19 03:49:31;;;;;;;13.32;9.88;;;16.10;99.90;;;;;;5064673;28;20039;-66
2021/07/19 03:51:58;;;;;;;13.15;9.18;;;16.20;99.90;;;;;;5065471;28;20040;-66
2021/07/19 03:54:24;;;;;;;13.07;8.75;;;16.10;99.90;;;;;;5069552;28;20051;-66
2021/07/19 03:56:50;;;;;;;14.32;10.15;;;16.20;99.90;;;;;;5068914;28;20676;-66
2021/07/19 03:59:19;;;;;;;17.75;9.30;;;16.20;99.90;;;;;;5064391;28;20036;-66
2021/07/19 04:01:47;;;;;;;16.63;8.95;;;16.20;99.90;;;;;;5068844;28;20552;-66
2021/07/19 04:04:17;;;;;;;15.32;9.25;;;16.20;99.90;;;;;;5064944;28;20490;-66
2021/07/19 04:06:44;;;;;;;17.02;9.88;;;16.20;99.90;;;;;;5066238;28;20056;-67
2021/07/19 04:09:10;;;;;;;17.60;9.43;;;16.30;99.90;;;;;;5062931;28;20431;-67
2021/07/19 04:11:38;;;;;;;19.33;9.20;;;16.30;99.90;;;;;;5065497;28;20067;-67
2021/07/19 04:14:08;;;;;;;14.02;8.40;;;16.30;99.90;;;;;;5067327;28;20051;-67
2021/07/19 04:16:34;;;;;;;16.02;8.98;;;16.30;99.90;;;;;;5066910;28;20036;-66
2021/07/19 04:19:00;;;;;;;16.48;9.68;;;16.30;99.90;;;;;;5065432;28;20501;-66
2021/07/19 04:21:26;;;;;;;12.60;8.18;;;16.40;99.90;;;;;;5066415;28;20037;-67
2021/07/19 04:23:53;;;;;;;16.23;8.88;;;16.40;99.90;;;;;;5069029;28;20048;-67
2021/07/19 04:26:19;;;;;;;14.73;8.55;;;16.30;99.90;;;;;;5066720;28;20094;-67
2021/07/19 04:28:45;;;;;;;12.80;9.43;;;16.40;99.90;;;;;;5064825;28;20132;-67
2021/07/19 04:31:16;;;;;;;14.30;8.88;;;16.40;99.90;;;;;;5067078;28;20482;-67
2021/07/19 04:33:49;;;;;;;14.27;9.82;;;16.40;99.90;;;;;;5064942;28;20047;-67
2021/07/19 04:36:17;;;;;;;14.35;8.43;;;16.40;99.90;;;;;;5066012;28;20055;-67
2021/07/19 04:38:46;;;;;;;16.83;9.38;;;16.40;99.90;;;;;;5062702;28;20049;-67
2021/07/19 04:41:15;;;;;;;13.45;9.05;;;16.40;99.90;;;;;;5066679;28;20040;-67
2021/07/19 04:43:41;;;;;;;19.92;9.50;;;16.50;99.90;;;;;;5064309;28;20045;-66
2021/07/19 04:46:06;;;;;;;17.52;8.93;;;16.50;99.90;;;;;;5066300;28;20479;-66
2021/07/19 04:48:32;;;;;;;13.98;8.27;;;16.60;99.90;;;;;;5063051;28;20471;-67
2021/07/19 04:50:58;;;;;;;15.30;9.43;;;16.50;99.90;;;;;;5064044;28;20107;-67
2021/07/19 04:53:24;;;;;;;21.15;9.77;;;16.60;99.90;;;;;;5066741;28;20044;-67
2021/07/19 04:55:53;;;;;;;19.02;9.95;;;16.60;99.90;;;;;;5068021;28;20036;-66
2021/07/19 04:58:22;;;;;;;18.38;11.57;;;16.60;99.90;;;;;;5063709;28;20033;-67
2021/07/19 05:00:58;;;;;;;13.57;8.32;;;16.60;99.90;;;;;;5063694;28;20047;-67
2021/07/19 05:03:26;;;;;;;14.02;9.52;;;16.70;99.90;;;;;;5064216;28;20072;-67
2021/07/19 05:05:59;;;;;;;15.30;9.10;;;16.70;99.90;;;;;;5064315;28;20529;-66
2021/07/19 05:08:26;;;;;;;18.52;9.77;;;16.80;99.90;;;;;;5065146;28;20044;-65
2021/07/19 05:10:53;;;;;;;12.05;9.13;;;16.80;99.90;;;;;;5067220;28;20029;-66
2021/07/19 05:13:20;;;;;;;15.63;9.63;;;16.90;99.90;;;;;;5063298;28;20147;-65
2021/07/19 05:15:46;;;;;;;13.48;9.23;;;16.90;99.90;;;;;;5062848;28;20051;-65
2021/07/19 05:18:17;;;;;;;15.65;10.75;;;16.90;99.90;;;;;;5062979;28;20052;-65
2021/07/19 05:27:58;;;;;;;14.50;9.02;;;17.00;99.90;;;;;;5062238;28;20102;-65
2021/07/19 05:30:27;;;;;;;15.88;9.05;;;17.00;99.90;;;;;;5058966;28;20125;-65
2021/07/19 05:32:53;;;;;;;16.52;8.68;;;17.00;99.90;;;;;;5063138;28;20094;-65
2021/07/19 05:35:20;;;;;;;15.45;8.30;;;17.00;99.90;;;;;;5063311;28;20036;-65
2021/07/19 05:37:46;;;;;;;18.20;9.63;;;16.90;99.90;;;;;;5061579;28;20161;-65
2021/07/19 05:40:14;;;;;;;12.45;8.32;;;17.00;99.90;;;;;;5059481;28;20825;-65
2021/07/19 05:42:41;;;;;;;14.32;8.38;;;17.00;99.90;;;;;;5062218;28;20040;-65
2021/07/19 05:45:08;;;;;;;16.88;9.15;;;17.00;99.90;;;;;;5063055;28;20036;-65
2021/07/19 05:47:34;;;;;;;15.38;8.88;;;17.00;99.90;;;;;;5061694;28;20028;-65
2021/07/19 05:50:01;;;;;;;14.07;8.15;;;17.10;99.90;;;;;;5057545;28;20501;-65
2021/07/19 05:52:27;;;;;;;17.70;7.65;;;17.10;99.90;;;;;;5062238;28;20599;-65
2021/07/19 05:54:52;;;;;;;14.32;7.57;;;17.10;99.90;;;;;;5062255;28;20029;-65
2021/07/19 05:57:18;;;;;;;16.33;8.20;;;17.10;99.90;;;;;;5063346;28;20106;-65
2021/07/19 05:59:44;;;;;;;15.95;8.63;;;17.20;99.90;;;;;;5058905;28;20051;-65
2021/07/19 06:02:10;;;;;;;14.38;8.48;;;17.30;99.90;;;;;;5061674;28;20055;-66
2021/07/19 06:04:35;;;;;;;12.82;7.38;;;17.30;99.90;;;;;;5062174;28;20040;-65
2021/07/19 06:07:01;;;;;;;15.02;8.02;;;17.40;99.90;;;;;;5061020;28;20610;-65
2021/07/19 06:09:27;;;;;;;14.50;7.88;;;17.50;99.90;;;;;;5057544;28;20113;-65
2021/07/19 06:11:53;;;;;;;14.23;7.43;;;17.50;99.90;;;;;;5062730;28;20058;-65
2021/07/19 06:14:18;;;;;;;12.20;6.32;;;17.50;99.90;;;;;;5060856;28;20041;-65
2021/07/19 06:16:44;;;;;;;12.52;7.10;;;17.60;99.90;;;;;;5059277;28;20041;-65
2021/07/19 06:19:10;;;;;;;13.05;5.95;;;17.50;99.90;;;;;;5056638;28;20049;-67
2021/07/19 06:21:37;;;;;;;14.70;6.32;;;17.50;99.90;;;;;;5056665;28;22141;-66
2021/07/19 06:24:03;;;;;;;14.70;6.25;;;17.50;99.90;;;;;;5061757;28;20040;-66
2021/07/19 06:26:30;;;;;;;13.05;5.47;;;17.50;99.90;;;;;;5060689;28;20059;-66
2021/07/19 06:28:56;;;;;;;14.25;4.85;;;17.50;99.90;;;;;;5052232;28;20036;-66
2021/07/19 06:31:22;;;;;;;12.77;4.35;;;17.50;99.90;;;;;;5058189;28;20463;-66
2021/07/19 06:33:47;;;;;;;9.15;4.85;;;17.40;99.90;;;;;;5059158;28;20067;-66
2021/07/19 06:36:13;;;;;;;11.90;5.32;;;17.40;99.90;;;;;;5058449;28;20127;-66
2021/07/19 06:38:39;;;;;;;10.77;4.65;;;17.40;99.90;;;;;;5057366;28;20032;-67
2021/07/19 06:41:06;;;;;;;21.58;6.35;;;17.40;99.90;;;;;;5057841;28;20044;-66
2021/07/19 06:43:31;;;;;;;8.02;4.85;;;17.40;99.90;;;;;;5056750;28;20628;-66
2021/07/19 06:45:57;;;;;;;16.50;5.07;;;17.50;99.90;;;;;;5056382;28;20048;-67
2021/07/19 06:48:23;;;;;;;11.07;4.82;;;17.50;99.90;;;;;;5056860;28;20044;-67
2021/07/19 06:50:49;;;;;;;14.02;4.20;;;17.50;99.90;;;;;;5059523;28;20083;-67
2021/07/19 06:53:14;;;;;;;12.07;4.70;;;17.50;99.90;;;;;;5057676;28;20032;-66
2021/07/19 06:55:40;;;;;;;9.55;4.15;;;17.50;99.90;;;;;;5060411;28;20113;-66
2021/07/19 06:58:06;;;;;;;13.25;4.50;;;17.50;99.90;;;;;;5058375;28;20036;-66
2021/07/19 07:00:31;;;;;;;10.27;4.10;;;17.50;99.90;;;;;;5056705;28;20037;-66
2021/07/19 07:02:57;;;;;;;12.23;4.65;;;17.50;99.90;;;;;;5056540;28;20040;-66
2021/07/19 07:05:24;;;;;;;15.23;4.00;;;17.40;99.90;;;;;;5058023;28;20135;-66
2021/07/19 07:07:49;;;;;;;13.50;4.55;;;17.40;99.90;;;;;;5060752;28;20044;-66
2021/07/19 07:10:18;;;;;;;10.00;4.15;;;17.50;99.90;;;;;;5060726;28;20036;-66
2021/07/19 07:12:44;;;;;;;10.85;5.38;;;17.50;99.90;;;;;;5064855;28;20033;-66
2021/07/19 07:15:10;;;;;;;12.65;4.10;;;17.50;99.90;;;;;;5064167;28;20067;-66
2021/07/19 07:17:38;;;;;;;11.23;4.10;;;17.60;99.90;;;;;;5063134;28;20604;-66
2021/07/19 07:20:04;;;;;;;7.88;3.55;;;17.80;99.90;;;;;;5060484;28;20032;-66
2021/07/19 07:22:30;;;;;;;13.07;3.72;;;17.90;99.90;;;;;;5064420;28;20052;-66
2021/07/19 07:24:56;;;;;;;9.43;3.90;;;18.10;99.90;;;;;;5064076;28;20403;-66
2021/07/19 07:27:24;;;;;;;14.18;4.10;;;18.20;99.90;;;;;;5060681;28;20502;-66
2021/07/19 07:29:50;;;;;;;11.15;3.42;;;18.40;99.90;;;;;;5060266;28;20117;-66
2021/07/19 07:32:16;;;;;;;14.35;4.13;;;18.50;99.90;;;;;;5064233;28;20043;-66
2021/07/19 07:34:42;;;;;;;7.93;3.45;;;18.70;99.90;;;;;;5056633;28;20044;-67
2021/07/19 07:37:12;;;;;;;9.55;3.92;;;18.90;99.90;;;;;;5058769;28;20048;-67
2021/07/19 07:39:39;;;;;;;10.77;3.95;;;19.30;99.90;;;;;;5054119;28;20168;-67
2021/07/19 07:42:05;;;;;;;9.15;2.80;;;19.70;99.90;;;;;;5059349;28;20482;-67
2021/07/19 07:44:31;;;;;;;10.45;3.05;;;19.80;99.90;;;;;;5059281;28;20056;-66
2021/07/19 07:46:57;;;;;;;7.45;3.20;;;19.90;99.90;;;;;;5062096;28;20048;-66
2021/07/19 07:49:23;;;;;;;9.65;3.30;;;19.80;99.90;;;;;;5057525;28;20657;-67
2021/07/19 07:51:49;;;;;;;9.63;4.03;;;19.80;99.90;;;;;;5061274;28;20633;-67
2021/07/19 07:54:16;;;;;;;14.27;3.80;;;19.80;99.90;;;;;;5061601;28;20049;-67
2021/07/19 07:56:42;;;;;;;14.18;4.30;;;19.90;99.90;;;;;;5060819;28;20125;-67
2021/07/19 07:59:07;;;;;;;8.27;4.07;;;20.10;99.90;;;;;;5059368;28;20478;-67
2021/07/19 08:01:33;;;;;;;11.10;3.30;;;20.60;99.90;;;;;;5062943;28;20028;-67
2021/07/19 08:03:59;;;;;;;10.35;3.60;;;20.70;99.90;;;;;;5062612;28;20076;-67
2021/07/19 08:06:25;;;;;;;7.15;3.47;;;20.70;99.90;;;;;;5062263;28;20727;-67
2021/07/19 08:08:50;;;;;;;9.68;4.30;;;20.70;99.90;;;;;;5058849;28;20068;-67
2021/07/19 08:11:17;;;;;;;9.20;3.60;;;20.70;99.90;;;;;;5061876;28;20536;-67
2021/07/19 08:13:42;;;;;;;10.70;4.47;;;20.60;99.90;;;;;;5061474;28;20036;-67
2021/07/19 08:16:08;;;;;;;7.47;4.22;;;20.60;99.90;;;;;;5062876;28;20501;-67
2021/07/19 08:18:35;;;;;;;8.77;4.43;;;20.60;99.90;;;;;;5055378;28;20037;-67
2021/07/19 08:21:01;;;;;;;10.00;3.90;;;20.70;99.90;;;;;;5060605;28;20555;-67
2021/07/19 08:23:26;;;;;;;9.07;3.67;;;20.70;99.90;;;;;;5061871;28;20040;-67
2021/07/19 08:25:52;;;;;;;9.73;4.15;;;20.60;99.90;;;;;;5062114;28;20036;-67
2021/07/19 08:28:18;;;;;;;9.82;4.93;;;20.50;99.90;;;;;;5059355;28;20387;-67
2021/07/19 08:30:43;;;;;;;7.75;3.78;;;20.30;99.90;;;;;;5060508;28;20213;-67
2021/07/19 08:33:09;;;;;;;9.10;4.10;;;20.20;99.90;;;;;;5061555;28;20044;-67
2021/07/19 08:35:35;;;;;;;7.85;3.65;;;20.00;99.90;;;;;;5060604;28;20045;-67
2021/07/19 08:38:01;;;;;;;15.43;5.30;;;19.80;99.90;;;;;;5059042;28;20368;-67
2021/07/19 08:40:28;;;;;;;33.38;23.70;;;19.70;99.90;;;;;;5058501;28;20044;-67
2021/07/19 08:42:55;;;;;;;16.85;9.75;;;19.50;99.90;;;;;;5061005;28;20040;-67
2021/07/19 08:45:21;;;;;;;23.48;15.65;;;19.50;99.90;;;;;;5060819;28;20040;-67
2021/07/19 08:47:49;;;;;;;13.23;4.88;;;19.50;99.90;;;;;;5059431;28;20028;-67
2021/07/19 08:50:16;;;;;;;16.38;5.00;;;19.50;99.90;;;;;;5059563;28;20052;-67
2021/07/19 08:52:50;;;;;;;10.57;4.07;;;19.60;99.90;;;;;;5060975;28;20403;-67
2021/07/19 08:55:18;;;;;;;7.93;3.75;;;19.60;99.90;;;;;;5059146;28;20033;-67
2021/07/19 08:57:46;;;;;;;13.27;3.88;;;19.50;99.90;;;;;;5061777;28;20043;-67
2021/07/19 09:00:13;;;;;;;7.47;3.67;;;19.50;99.90;;;;;;5057544;28;20120;-67
2021/07/19 09:02:39;;;;;;;6.72;3.50;;;19.40;99.90;;;;;;5061784;28;20055;-66
2021/07/19 09:05:05;;;;;;;9.18;4.45;;;19.40;99.90;;;;;;5059157;28;20401;-67
2021/07/19 09:07:32;;;;;;;9.63;4.05;;;19.40;99.90;;;;;;5059082;28;20047;-67
2021/07/19 09:09:59;;;;;;;6.38;3.47;;;19.30;99.90;;;;;;5057778;28;20040;-67
2021/07/19 09:12:40;;;;;;;38.08;28.88;;;19.30;99.90;;;;;;5060766;28;20044;-67
2021/07/19 09:15:09;;;;;;;15.82;10.18;;;19.50;99.90;;;;;;5062049;28;20094;-67
2021/07/19 09:17:35;;;;;;;44.72;33.30;;;19.50;99.90;;;;;;5059934;28;20135;-67
2021/07/19 09:20:04;;;;;;;10.00;5.03;;;19.60;99.90;;;;;;5056531;28;20043;-67
2021/07/19 09:22:32;;;;;;;8.52;4.30;;;19.70;99.90;;;;;;5058746;28;20405;-67
2021/07/19 09:25:27;;;;;;;8.40;3.38;;;19.90;99.90;;;;;;5061439;28;20066;-67
2021/07/19 09:28:01;;;;;;;9.30;3.92;;;20.10;99.90;;;;;;5055841;28;20045;-67
2021/07/19 09:30:28;;;;;;;14.10;4.10;;;20.30;99.90;;;;;;5056523;28;20032;-67
2021/07/19 09:33:01;;;;;;;11.00;4.15;;;20.60;99.90;;;;;;5060625;28;20135;-67
2021/07/19 09:35:28;;;;;;;10.65;3.42;;;20.70;99.90;;;;;;5060156;28;20560;-67
2021/07/19 09:37:55;;;;;;;11.77;4.63;;;20.70;99.90;;;;;;5058112;28;20451;-68
2021/07/19 09:40:25;;;;;;;7.72;3.97;;;20.70;99.90;;;;;;5060485;28;20072;-67
2021/07/19 09:42:51;;;;;;;10.85;3.78;;;20.70;99.90;;;;;;5063159;28;20044;-66
2021/07/19 09:45:32;;;;;;;12.50;4.68;;;20.50;99.90;;;;;;5062655;28;20053;-67
2021/07/19 09:48:04;;;;;;;6.47;3.40;;;20.40;99.90;;;;;;5060835;28;20048;-68
2021/07/19 09:50:47;;;;;;;7.97;4.00;;;20.40;99.90;;;;;;5060060;28;20039;-67
2021/07/19 09:53:13;;;;;;;7.93;3.97;;;20.50;99.90;;;;;;5060768;28;20033;-68
2021/07/19 09:55:39;;;;;;;9.93;3.90;;;20.60;99.90;;;;;;5062365;28;20052;-69
2021/07/19 09:58:05;;;;;;;7.63;4.25;;;20.60;99.90;;;;;;5060804;28;20103;-68
2021/07/19 10:00:32;;;;;;;7.32;2.88;;;20.60;99.80;;;;;;5058545;28;20039;-69
2021/07/19 10:02:58;;;;;;;9.85;3.15;;;20.70;99.90;;;;;;5061246;28;20045;-68
2021/07/19 10:05:29;;;;;;;4.82;2.55;;;20.90;99.90;;;;;;5061947;28;20106;-69
2021/07/19 10:07:56;;;;;;;8.13;3.13;;;21.00;99.90;;;;;;5060600;28;20051;-69
2021/07/19 10:10:51;;;;;;;7.43;3.65;;;21.00;99.90;;;;;;5059328;28;20044;-69
2021/07/19 10:13:17;;;;;;;9.15;4.10;;;21.00;98.40;;;;;;5051976;28;20098;-69
2021/07/19 10:15:44;;;;;;;8.85;3.85;;;21.00;99.60;;;;;;5063098;28;20101;-69
2021/07/19 10:18:11;;;;;;;6.97;3.50;;;21.00;99.90;;;;;;5062190;28;20052;-68
2021/07/19 10:20:42;;;;;;;8.27;3.83;;;20.90;99.90;;;;;;5058189;28;20054;-69
2021/07/19 10:23:11;;;;;;;6.75;3.60;;;21.00;99.90;;;;;;5061947;28;20036;-69
2021/07/19 10:25:38;;;;;;;13.38;4.97;;;21.00;99.90;;;;;;5062192;28;20040;-69
2021/07/19 10:28:06;;;;;;;8.32;3.72;;;21.00;99.90;;;;;;5060911;28;20101;-69
2021/07/19 10:30:32;;;;;;;15.63;4.00;;;21.40;99.90;;;;;;5060605;28;20118;-69
2021/07/19 10:32:59;;;;;;;13.32;4.45;;;21.80;99.40;;;;;;5061296;28;20115;-68
2021/07/19 10:35:28;;;;;;;23.25;5.32;;;22.00;98.60;;;;;;5060546;28;20134;-68
2021/07/19 10:38:14;;;;;;;8.98;4.28;;;22.10;98.10;;;;;;5061270;28;20116;-69
2021/07/19 10:40:40;;;;;;;6.90;3.28;;;22.20;98.10;;;;;;5058310;28;20094;-69
2021/07/19 10:43:16;;;;;;;7.88;3.53;;;22.10;97.50;;;;;;5058838;28;20037;-69
2021/07/19 10:45:58;;;;;;;6.15;3.20;;;22.10;97.00;;;;;;5061288;28;20042;-69
2021/07/19 10:48:29;;;;;;;12.15;4.70;;;22.10;97.10;;;;;;5057430;28;20036;-69
2021/07/19 10:50:57;;;;;;;8.77;3.80;;;22.10;97.90;;;;;;5059336;28;20040;-69
2021/07/19 10:53:27;;;;;;;11.13;3.92;;;22.20;97.20;;;;;;5057398;28;20048;-69
2021/07/19 10:55:58;;;;;;;8.00;3.53;;;22.30;96.70;;;;;;5061460;28;20040;-69
2021/07/19 10:58:34;;;;;;;7.40;3.90;;;22.20;96.40;;;;;;5060069;28;20124;-68
2021/07/19 11:01:00;;;;;;;11.15;4.32;;;22.10;96.80;;;;;;5063933;28;20116;-69
2021/07/19 11:03:37;;;;;;;7.50;4.03;;;22.00;97.40;;;;;;5057451;28;20040;-68
2021/07/19 11:06:03;;;;;;;8.88;3.63;;;22.10;96.50;;;;;;5059956;28;20075;-69
2021/07/19 11:08:28;;;;;;;6.28;2.95;;;22.00;97.20;;;;;;5057682;28;22673;-69
2021/07/19 11:10:58;;;;;;;6.55;3.60;;;22.00;97.20;;;;;;5059135;28;20055;-69
2021/07/19 11:13:34;;;;;;;7.43;3.53;;;22.20;96.90;;;;;;5058964;28;20055;-69
2021/07/19 11:16:01;;;;;;;11.40;3.55;;;22.30;96.90;;;;;;5060679;28;20498;-69
2021/07/19 11:18:30;;;;;;;8.52;3.20;;;22.30;96.30;;;;;;5055774;28;20041;-69
2021/07/19 11:21:00;;;;;;;10.32;3.42;;;22.40;95.90;;;;;;5058941;28;20048;-69
2021/07/19 11:23:34;;;;;;;16.42;4.13;;;22.50;96.10;;;;;;5056320;28;20040;-69
2021/07/19 11:26:06;;;;;;;7.40;3.57;;;22.60;95.90;;;;;;5059895;28;20491;-69
2021/07/19 11:28:42;;;;;;;10.35;3.47;;;22.50;95.80;;;;;;5059370;28;20101;-69
2021/07/19 11:31:10;;;;;;;8.75;3.00;;;22.50;95.00;;;;;;5059672;28;20041;-69
2021/07/19 11:33:44;;;;;;;8.77;3.45;;;22.60;94.90;;;;;;5057435;28;20037;-69
2021/07/19 11:36:30;;;;;;;7.28;3.92;;;22.60;94.20;;;;;;5059711;28;20429;-69
2021/07/19 11:38:59;;;;;;;12.85;4.15;;;22.60;93.40;;;;;;5053860;28;21763;-69
2021/07/19 11:41:28;;;;;;;17.38;8.73;;;22.70;94.30;;;;;;5059098;28;20040;-69
2021/07/19 11:43:57;;;;;;;14.98;8.88;;;22.80;93.00;;;;;;5058190;28;20094;-69
2021/07/19 11:46:39;;;;;;;8.07;5.47;;;22.80;93.00;;;;;;5059534;28;20090;-66
2021/07/19 11:49:09;;;;;;;9.00;4.95;;;22.80;93.70;;;;;;5056506;28;20388;-70
2021/07/19 11:51:39;;;;;;;5.50;4.30;;;22.80;92.80;;;;;;5059214;28;20045;-70
2021/07/19 11:54:08;;;;;;;7.90;5.00;;;22.60;92.70;;;;;;5058352;28;20127;-70
2021/07/19 11:56:34;;;;;;;10.30;5.50;;;22.40;92.30;;;;;;5062091;28;20051;-70
2021/07/19 11:59:02;;;;;;;7.25;5.60;;;22.50;92.90;;;;;;5059992;28;20041;-70
2021/07/19 12:01:29;;;;;;;8.40;4.90;;;22.60;92.60;;;;;;5061089;28;20510;-70
2021/07/19 12:03:56;;;;;;;11.07;5.53;;;22.80;93.60;;;;;;5061057;28;20032;-70
2021/07/19 12:06:23;;;;;;;10.02;5.25;;;23.00;92.80;;;;;;5063123;28;20056;-70
2021/07/19 12:08:55;;;;;;;7.00;5.53;;;23.10;92.40;;;;;;5058851;28;20037;-70
2021/07/19 12:11:21;;;;;;;7.82;5.18;;;23.20;92.20;;;;;;5062901;28;20041;-70
2021/07/19 12:13:47;;;;;;;11.45;4.53;;;23.40;91.30;;;;;;5062225;28;20048;-69
2021/07/19 12:16:14;;;;;;;114.75;103.95;;;23.40;88.60;;;;;;5062171;28;20094;-70
2021/07/19 12:18:48;;;;;;;11.80;9.55;;;23.40;90.10;;;;;;5058651;28;20077;-70
2021/07/19 12:21:20;;;;;;;18.20;13.75;;;23.20;91.60;;;;;;5063105;28;20495;-70
2021/07/19 12:23:50;;;;;;;19.75;14.65;;;23.20;92.20;;;;;;5061384;28;20037;-70
2021/07/19 12:26:19;;;;;;;15.32;7.93;;;23.30;91.90;;;;;;5061260;28;20048;-70
2021/07/19 12:29:04;;;;;;;7.90;5.90;;;23.30;91.40;;;;;;5058617;28;20075;-70
2021/07/19 12:31:45;;;;;;;17.30;14.57;;;23.20;91.00;;;;;;5061301;28;20056;-70
2021/07/19 12:34:11;;;;;;;9.30;8.30;;;23.10;91.00;;;;;;5061518;28;20123;-70
2021/07/19 12:36:38;;;;;;;15.32;10.02;;;23.10;91.30;;;;;;5060687;28;20377;-70
2021/07/19 12:39:09;;;;;;;12.40;8.77;;;22.80;91.60;;;;;;5056172;28;20115;-70
2021/07/19 12:41:36;;;;;;;9.60;7.10;;;22.70;90.80;;;;;;5059919;28;20112;-70
2021/07/19 12:44:05;;;;;;;15.75;7.72;;;22.60;91.60;;;;;;5062639;28;20036;-70
2021/07/19 12:46:38;;;;;;;9.18;7.88;;;22.60;92.20;;;;;;5062489;28;20429;-70
2021/07/19 12:49:03;;;;;;;8.52;7.60;;;22.60;91.90;;;;;;5056460;28;20118;-70
2021/07/19 12:51:29;;;;;;;9.40;7.63;;;22.70;92.00;;;;;;5062043;28;20531;-70